KCMX/CMX METAR and TAF weather

Enter ICAO airport designator
Station Type Date Time Source
KCMX METAR 2024/02/26 17:53 UTC NOAA

KCMX 261753Z AUTO 14015KT 10SM BKN080 BKN100 02/M08 A2957 RMK AO2 PRESFR SLP025 T00221078 10022 21072 58049


Station Type Date Time Source
KCMX Decoded METAR 2024/02/26 17:53 UTC NOAA

HANCOCK HOUGHTON CTY. MEMO, MI, United States (KCMX) 47-10N 088-29W 326M
Feb 26, 2024 - 12:53 PM EST / 2024.02.26 1753 UTC
Wind: from the SE (140 degrees) at 17 MPH (15 KT):0
Visibility: 10 mile(s):0
Sky conditions: mostly cloudy
Temperature: 36.0 F (2.2 C)
Dew Point: 18.0 F (-7.8 C)
Relative Humidity: 47%
Pressure (altimeter): 29.57 in. Hg (1001 hPa)
Pressure tendency: falling rapidly - 0.14 inches (4.9 hPa) lower than three hours ago
ob: KCMX 261753Z AUTO 14015KT 10SM BKN080 BKN100 02/M08 A2957 RMK AO2 PRESFR SLP025 T00221078 10022 21072 58049
cycle: 18

Station Type Date Time Source
KCMX TAF 2024/02/26 18:22 UTC NOAA